Louisbourg, Canada
Current Conditions -  °F | °C
As of 11:00 PM on Friday 24 Oct 2014 (Local Time) from CYQY Reporting Station
Moderate Fog Moderate Fog  
Wind Chill: 54°   Ceiling: 200
Heat Index: 54°   Visibility: 0.25mi
Dew Point: 54°   Wind: 7mph
Humidity: 100%   Direction: 10°N
Pressure: 29.4"   Gusts: NA
Location:  45.92°N, 59.98°W
Report Text: CYQY 250200Z 01006KT 1/4SM R07/2200FT/N FG VV002 12/12 A2940 RMK FG8 SLP957 DENSITY ALT 400FT
Loading
Personal Weather Stations






























Interactive Weather Map
Tropical Storm Tracking
New forecast layout! Learn more

10-Day Weather Forecast

Advertisements
Track Severe Weather on mobile